createdAt,value
2022-08-23T00:03:18.851Z,17.80
2022-08-23T00:07:22.092Z,16.85
2022-08-23T00:11:46.056Z,16.27
2022-08-23T00:15:48.405Z,16.77
2022-08-23T00:19:50.554Z,17.17
2022-08-23T00:23:52.947Z,18.77
2022-08-23T00:27:58.631Z,15.32
2022-08-23T00:32:02.312Z,16.63
2022-08-23T00:36:05.070Z,15.55
2022-08-23T00:40:10.309Z,17.60
2022-08-23T00:44:45.949Z,17.35
2022-08-23T00:48:50.121Z,18.88
2022-08-23T00:53:08.782Z,18.17
2022-08-23T00:57:15.970Z,17.40
2022-08-23T01:01:18.777Z,19.65
2022-08-23T01:05:25.144Z,18.20
2022-08-23T01:09:27.582Z,18.42
2022-08-23T01:13:40.184Z,16.45
2022-08-23T01:17:54.179Z,19.98
2022-08-23T01:22:16.254Z,22.70
2022-08-23T01:26:22.094Z,18.85
2022-08-23T01:30:29.657Z,18.52
2022-08-23T01:34:35.191Z,24.30
2022-08-23T01:38:39.219Z,26.17
2022-08-23T01:42:41.861Z,19.23
2022-08-23T01:46:47.744Z,30.25
2022-08-23T01:50:49.873Z,22.40
2022-08-23T01:54:52.177Z,17.25
2022-08-23T01:58:54.361Z,16.23
2022-08-23T02:02:59.510Z,15.35
2022-08-23T02:07:01.854Z,20.67
2022-08-23T02:11:10.254Z,13.35
2022-08-23T02:15:16.485Z,17.10
2022-08-23T02:19:22.982Z,14.38
2022-08-23T02:23:25.270Z,18.45
2022-08-23T02:27:27.730Z,16.30
2022-08-23T02:31:31.401Z,16.42
2022-08-23T02:35:33.829Z,16.85
2022-08-23T02:39:36.215Z,21.85
2022-08-23T02:43:41.268Z,18.50
2022-08-23T02:47:45.877Z,18.42
2022-08-23T02:51:57.628Z,25.23
2022-08-23T02:56:01.024Z,22.30
2022-08-23T03:00:05.860Z,27.67
2022-08-23T03:04:10.352Z,24.45
2022-08-23T03:08:13.505Z,22.65
2022-08-23T03:12:21.704Z,31.20
2022-08-23T03:16:29.470Z,27.10
2022-08-23T03:20:32.281Z,23.45
2022-08-23T03:24:36.536Z,21.70
2022-08-23T03:28:40.725Z,27.45
2022-08-23T03:32:48.962Z,21.58
2022-08-23T03:36:52.160Z,23.58
2022-08-23T03:40:54.996Z,23.60
2022-08-23T03:45:00.761Z,21.63
2022-08-23T03:49:06.382Z,20.00
2022-08-23T03:53:18.619Z,21.40
2022-08-23T03:57:22.030Z,19.80
2022-08-23T04:01:28.338Z,20.52
2022-08-23T04:05:32.798Z,19.17
2022-08-23T04:09:38.943Z,19.13
2022-08-23T04:13:43.292Z,17.58
2022-08-23T04:17:46.646Z,21.80
2022-08-23T04:21:52.779Z,21.20
2022-08-23T04:25:55.757Z,18.75
2022-08-23T04:29:59.686Z,18.95
2022-08-23T04:34:03.936Z,20.58
2022-08-23T04:38:24.483Z,19.50
2022-08-23T04:42:30.327Z,24.67
2022-08-23T04:46:32.596Z,26.77
2022-08-23T04:50:37.563Z,20.10
2022-08-23T04:54:52.613Z,19.80
2022-08-23T04:59:06.657Z,19.77
2022-08-23T05:03:08.862Z,19.70
2022-08-23T05:07:11.510Z,19.90
2022-08-23T05:11:14.325Z,19.83
2022-08-23T05:15:17.166Z,20.35
2022-08-23T05:19:24.768Z,20.42
2022-08-23T05:23:31.717Z,20.45
2022-08-23T05:27:41.102Z,17.67
2022-08-23T05:31:43.666Z,17.60
2022-08-23T05:35:51.262Z,17.90
2022-08-23T05:39:53.315Z,17.30
2022-08-23T05:43:55.768Z,22.02
2022-08-23T05:47:58.249Z,18.10
2022-08-23T05:52:21.916Z,17.25
2022-08-23T05:56:33.042Z,17.90
2022-08-23T06:00:37.970Z,17.27
2022-08-23T06:04:42.571Z,18.20
2022-08-23T06:08:47.120Z,20.70
2022-08-23T06:12:49.297Z,19.58
2022-08-23T06:16:55.858Z,19.85
2022-08-23T06:21:07.298Z,22.25
2022-08-23T06:25:38.275Z,19.73
2022-08-23T06:29:48.317Z,20.63
2022-08-23T06:34:12.316Z,16.63
2022-08-23T06:38:34.610Z,19.80
2022-08-23T06:42:55.016Z,17.05
2022-08-23T06:47:02.886Z,17.05
2022-08-23T06:51:36.262Z,17.98
2022-08-23T06:55:52.421Z,17.90
2022-08-23T07:00:06.625Z,17.08
2022-08-23T07:04:35.745Z,14.48
2022-08-23T07:08:58.875Z,17.73
2022-08-23T07:13:03.601Z,15.57
2022-08-23T07:17:06.361Z,15.65
2022-08-23T07:21:08.706Z,15.77
2022-08-23T07:25:12.398Z,15.18
2022-08-23T07:29:16.517Z,15.40
2022-08-23T07:33:18.956Z,15.80
2022-08-23T07:37:51.234Z,14.90
2022-08-23T07:41:53.571Z,13.15
2022-08-23T07:45:56.922Z,14.63
2022-08-23T07:49:59.197Z,14.30
2022-08-23T07:54:09.626Z,13.77
2022-08-23T07:58:22.095Z,14.33
2022-08-23T08:02:46.440Z,14.35
2022-08-23T08:07:17.777Z,13.63
2022-08-23T08:11:25.360Z,12.27
2022-08-23T08:15:30.725Z,13.05
2022-08-23T08:19:41.928Z,13.10
2022-08-23T08:24:04.943Z,12.77
2022-08-23T08:28:19.025Z,14.48
2022-08-23T08:32:21.738Z,13.75
2022-08-23T08:36:32.545Z,12.30
2022-08-23T08:40:40.549Z,11.63
2022-08-23T08:44:51.370Z,13.20
2022-08-23T08:49:05.245Z,12.07
2022-08-23T08:53:29.251Z,12.68
2022-08-23T08:57:42.470Z,11.43
2022-08-23T09:01:45.848Z,12.93
2022-08-23T09:06:25.669Z,14.38
2022-08-23T09:11:00.558Z,12.25
2022-08-23T09:15:23.722Z,13.05
2022-08-23T09:19:33.541Z,12.77
2022-08-23T09:23:42.495Z,11.45
2022-08-23T09:27:46.437Z,11.57
2022-08-23T09:31:55.907Z,12.10
2022-08-23T09:36:18.226Z,11.63
2022-08-23T09:40:54.215Z,11.18
2022-08-23T09:44:57.820Z,10.57
2022-08-23T09:49:23.213Z,11.55
2022-08-23T09:53:28.216Z,9.98
2022-08-23T09:57:34.331Z,8.40
2022-08-23T10:01:39.314Z,9.23
2022-08-23T10:06:00.843Z,8.23
2022-08-23T10:10:32.855Z,8.07
2022-08-23T10:14:38.214Z,8.68
2022-08-23T10:23:04.895Z,8.40
2022-08-23T10:27:44.748Z,8.00
2022-08-23T10:32:27.611Z,7.80
2022-08-23T10:36:51.051Z,8.27
2022-08-23T10:41:20.149Z,6.85
2022-08-23T10:45:40.227Z,6.63
2022-08-23T10:49:53.665Z,7.10
2022-08-23T10:54:12.794Z,6.75
2022-08-23T10:58:24.165Z,6.20
2022-08-23T11:02:38.842Z,7.38
2022-08-23T11:07:21.005Z,6.90
2022-08-23T11:11:40.409Z,6.75
2022-08-23T11:16:03.968Z,6.57
2022-08-23T11:20:12.942Z,6.75
2022-08-23T11:24:15.751Z,7.03
2022-08-23T11:28:22.321Z,6.43
2022-08-23T11:32:38.928Z,6.80
2022-08-23T11:36:41.656Z,6.68
2022-08-23T11:40:55.270Z,6.80
2022-08-23T11:45:01.552Z,7.30
2022-08-23T11:49:28.791Z,7.47
2022-08-23T11:53:31.078Z,7.63
2022-08-23T11:57:45.190Z,7.75
2022-08-23T12:01:47.615Z,7.40
2022-08-23T12:05:52.925Z,7.88
2022-08-23T12:09:56.909Z,8.20
2022-08-23T12:14:21.085Z,7.32
2022-08-23T12:18:25.537Z,7.00
2022-08-23T12:22:34.653Z,6.70
2022-08-23T12:26:50.309Z,7.88
2022-08-23T12:31:19.760Z,7.20
2022-08-23T12:35:51.130Z,8.32
2022-08-23T12:39:57.819Z,7.22
2022-08-23T12:44:06.165Z,8.25
2022-08-23T12:48:12.591Z,8.02
2022-08-23T12:52:14.597Z,7.30
2022-08-23T12:56:32.213Z,7.97
2022-08-23T13:00:50.746Z,8.53
2022-08-23T13:04:58.611Z,7.45
2022-08-23T13:09:07.993Z,8.13
2022-08-23T13:13:19.407Z,9.20
2022-08-23T13:17:27.417Z,7.95
2022-08-23T13:25:43.435Z,8.60
2022-08-23T13:30:00.462Z,7.90
2022-08-23T13:34:02.503Z,9.68
2022-08-23T13:38:10.631Z,9.13
2022-08-23T13:42:12.797Z,7.00
2022-08-23T13:46:22.884Z,8.20
2022-08-23T13:50:29.996Z,8.75
2022-08-23T13:54:33.885Z,8.73
2022-08-23T13:58:36.323Z,8.50
2022-08-23T14:02:39.376Z,8.60
2022-08-23T14:06:41.494Z,8.55
2022-08-23T14:10:44.403Z,11.38
2022-08-23T14:14:46.687Z,8.68
2022-08-23T14:23:12.076Z,9.48
2022-08-23T14:27:14.746Z,9.32
2022-08-23T14:31:17.426Z,9.05
2022-08-23T14:35:19.773Z,9.43
2022-08-23T14:39:22.750Z,9.63
2022-08-23T14:43:26.959Z,11.10
2022-08-23T14:47:29.485Z,9.50
2022-08-23T14:51:38.116Z,9.25
2022-08-23T14:55:46.334Z,10.50
2022-08-23T14:59:48.634Z,10.55
2022-08-23T15:03:51.679Z,9.02
2022-08-23T15:07:54.314Z,9.20
2022-08-23T15:16:21.750Z,9.57
2022-08-23T15:20:29.475Z,10.13
2022-08-23T15:24:33.323Z,10.15
2022-08-23T15:28:36.187Z,11.60
2022-08-23T15:32:38.514Z,11.40
2022-08-23T15:36:43.525Z,11.65
2022-08-23T15:40:46.503Z,9.38
2022-08-23T15:44:49.404Z,10.27
2022-08-23T15:48:56.270Z,8.55
2022-08-23T15:52:59.280Z,10.77
2022-08-23T15:57:01.842Z,9.85
2022-08-23T16:01:04.427Z,10.82
2022-08-23T16:05:09.670Z,13.50
2022-08-23T16:09:19.849Z,10.65
2022-08-23T16:13:23.083Z,10.75
2022-08-23T16:17:25.731Z,10.32
2022-08-23T16:21:29.906Z,10.13
2022-08-23T16:25:32.112Z,10.50
2022-08-23T16:29:36.336Z,10.05
2022-08-23T16:33:39.051Z,9.77
2022-08-23T16:37:41.392Z,12.13
2022-08-23T16:41:43.406Z,12.70
2022-08-23T16:45:46.120Z,12.52
2022-08-23T16:49:48.404Z,10.57
2022-08-23T16:54:01.840Z,8.63
2022-08-23T16:58:07.950Z,9.63
2022-08-23T17:02:26.591Z,8.07
2022-08-23T17:06:28.970Z,8.00
2022-08-23T17:10:31.265Z,9.55
2022-08-23T17:14:33.619Z,8.40
2022-08-23T17:18:37.398Z,8.35
2022-08-23T17:22:39.946Z,7.60
2022-08-23T17:26:42.685Z,6.93
2022-08-23T17:30:44.712Z,7.15
2022-08-23T17:34:47.497Z,8.57
2022-08-23T17:38:49.503Z,7.30
2022-08-23T17:42:52.492Z,8.02
2022-08-23T17:46:55.087Z,7.40
2022-08-23T17:50:59.779Z,6.82
2022-08-23T17:55:02.353Z,7.30
2022-08-23T17:59:06.011Z,7.35
2022-08-23T18:03:08.136Z,7.57
2022-08-23T18:07:11.181Z,8.65
2022-08-23T18:11:13.973Z,7.85
2022-08-23T18:15:16.945Z,8.57
2022-08-23T18:19:19.174Z,7.93
2022-08-23T18:23:21.735Z,9.15
2022-08-23T18:27:42.400Z,10.15
2022-08-23T18:31:45.145Z,9.20
2022-08-23T18:35:47.362Z,10.05
2022-08-23T18:39:49.777Z,8.20
2022-08-23T18:43:52.230Z,8.00
2022-08-23T18:47:54.545Z,7.32
2022-08-23T18:51:56.919Z,7.32
2022-08-23T18:55:59.342Z,7.25
2022-08-23T19:00:02.521Z,7.10
2022-08-23T19:04:07.181Z,9.02
2022-08-23T19:08:13.601Z,6.78
2022-08-23T19:12:17.839Z,7.35
2022-08-23T19:16:22.067Z,7.78
2022-08-23T19:20:25.753Z,7.72
2022-08-23T19:24:28.778Z,6.78
2022-08-23T19:28:33.005Z,7.03
2022-08-23T19:32:35.497Z,6.47
2022-08-23T19:36:47.532Z,7.00
2022-08-23T19:40:52.435Z,7.68
2022-08-23T19:44:55.118Z,6.95
2022-08-23T19:48:57.813Z,6.68
2022-08-23T19:53:00.232Z,6.72
2022-08-23T19:57:02.604Z,7.50
2022-08-23T20:01:05.108Z,6.35
2022-08-23T20:05:08.500Z,7.03
2022-08-23T20:09:36.143Z,5.97
2022-08-23T20:13:38.337Z,6.80
2022-08-23T20:17:41.294Z,6.03
2022-08-23T20:21:44.083Z,7.95
2022-08-23T20:25:46.331Z,7.20
2022-08-23T20:29:48.507Z,7.30
2022-08-23T20:33:51.620Z,7.85
2022-08-23T20:37:53.625Z,6.20
2022-08-23T20:41:56.326Z,6.55
2022-08-23T20:45:59.893Z,6.65
2022-08-23T20:50:02.845Z,8.43
2022-08-23T20:54:06.445Z,7.15
2022-08-23T20:58:09.138Z,6.53
2022-08-23T21:02:11.347Z,7.07
2022-08-23T21:06:24.047Z,7.78
2022-08-23T21:10:27.690Z,7.88
2022-08-23T21:14:30.011Z,7.30
2022-08-23T21:18:32.205Z,8.27
2022-08-23T21:22:34.435Z,7.97
2022-08-23T21:26:37.348Z,7.28
2022-08-23T21:30:39.757Z,8.32
2022-08-23T21:34:41.898Z,8.13
2022-08-23T21:38:45.410Z,7.45
2022-08-23T21:42:47.895Z,8.63
2022-08-23T21:46:50.196Z,8.57
2022-08-23T21:50:52.638Z,8.18
2022-08-23T21:54:54.985Z,8.32
2022-08-23T21:59:02.445Z,8.40
2022-08-23T22:03:05.729Z,10.40
2022-08-23T22:07:08.424Z,9.15
2022-08-23T22:11:11.433Z,9.55
2022-08-23T22:15:14.643Z,8.45
2022-08-23T22:19:18.746Z,8.40
2022-08-23T22:23:21.428Z,7.65
2022-08-23T22:27:23.704Z,8.98
2022-08-23T22:31:26.053Z,11.65
2022-08-23T22:35:29.069Z,13.02
2022-08-23T22:39:31.108Z,12.48
2022-08-23T22:43:33.498Z,10.20
2022-08-23T22:47:35.813Z,9.85
2022-08-23T22:51:38.340Z,9.40
2022-08-23T22:55:42.167Z,8.90
2022-08-23T22:59:44.546Z,13.10
2022-08-23T23:03:46.908Z,10.57
2022-08-23T23:08:09.990Z,8.48
2022-08-23T23:12:13.283Z,9.82
2022-08-23T23:16:20.818Z,9.50
2022-08-23T23:20:39.946Z,11.60
2022-08-23T23:24:42.412Z,11.55
2022-08-23T23:28:44.605Z,10.82
2022-08-23T23:32:47.229Z,9.27
2022-08-23T23:36:49.881Z,7.78
2022-08-23T23:40:52.164Z,9.68
2022-08-23T23:44:54.264Z,10.40
2022-08-23T23:48:56.480Z,7.90
2022-08-23T23:52:58.714Z,10.02
2022-08-23T23:57:03.443Z,8.85
